sensor_id;sensor_type;location;lat;lon;timestamp;P1;durP1;ratioP1;P2;durP2;ratioP2
49101;SDS011;34913;47.520;19.186;2022-12-29T00:02:01;19.10;;;9.98;;
49101;SDS011;34913;47.520;19.186;2022-12-29T00:04:26;20.58;;;10.18;;
49101;SDS011;34913;47.520;19.186;2022-12-29T00:06:52;17.13;;;9.65;;
49101;SDS011;34913;47.520;19.186;2022-12-29T00:09:18;17.50;;;9.32;;
49101;SDS011;34913;47.520;19.186;2022-12-29T00:11:44;18.83;;;9.77;;
49101;SDS011;34913;47.520;19.186;2022-12-29T00:14:09;16.55;;;9.23;;
49101;SDS011;34913;47.520;19.186;2022-12-29T00:16:54;19.58;;;9.60;;
49101;SDS011;34913;47.520;19.186;2022-12-29T00:19:19;25.98;;;11.70;;
49101;SDS011;34913;47.520;19.186;2022-12-29T00:22:03;22.42;;;10.88;;
49101;SDS011;34913;47.520;19.186;2022-12-29T00:24:47;21.55;;;10.48;;
49101;SDS011;34913;47.520;19.186;2022-12-29T00:27:31;20.05;;;10.52;;
49101;SDS011;34913;47.520;19.186;2022-12-29T00:30:17;20.23;;;10.35;;
49101;SDS011;34913;47.520;19.186;2022-12-29T00:33:09;17.48;;;10.07;;
49101;SDS011;34913;47.520;19.186;2022-12-29T00:35:57;21.90;;;10.80;;
49101;SDS011;34913;47.520;19.186;2022-12-29T00:38:25;24.77;;;11.05;;
49101;SDS011;34913;47.520;19.186;2022-12-29T00:41:10;21.85;;;11.38;;
49101;SDS011;34913;47.520;19.186;2022-12-29T00:43:54;24.50;;;11.05;;
49101;SDS011;34913;47.520;19.186;2022-12-29T00:46:32;20.88;;;11.07;;
49101;SDS011;34913;47.520;19.186;2022-12-29T00:48:57;24.00;;;11.63;;
49101;SDS011;34913;47.520;19.186;2022-12-29T00:51:42;22.35;;;10.63;;
49101;SDS011;34913;47.520;19.186;2022-12-29T00:54:07;19.02;;;10.80;;
49101;SDS011;34913;47.520;19.186;2022-12-29T00:56:32;21.70;;;10.73;;
49101;SDS011;34913;47.520;19.186;2022-12-29T00:59:02;22.40;;;10.93;;
49101;SDS011;34913;47.520;19.186;2022-12-29T01:01:29;17.05;;;9.88;;
49101;SDS011;34913;47.520;19.186;2022-12-29T01:03:54;17.85;;;10.23;;
49101;SDS011;34913;47.520;19.186;2022-12-29T01:06:20;16.02;;;9.30;;
49101;SDS011;34913;47.520;19.186;2022-12-29T01:08:45;19.48;;;9.45;;
49101;SDS011;34913;47.520;19.186;2022-12-29T01:11:12;18.02;;;9.80;;
49101;SDS011;34913;47.520;19.186;2022-12-29T01:13:38;17.65;;;9.65;;
49101;SDS011;34913;47.520;19.186;2022-12-29T01:16:06;17.83;;;9.82;;
49101;SDS011;34913;47.520;19.186;2022-12-29T01:18:31;16.88;;;9.27;;
49101;SDS011;34913;47.520;19.186;2022-12-29T01:20:58;19.90;;;9.52;;
49101;SDS011;34913;47.520;19.186;2022-12-29T01:23:30;19.73;;;10.18;;
49101;SDS011;34913;47.520;19.186;2022-12-29T01:25:56;15.52;;;8.63;;
49101;SDS011;34913;47.520;19.186;2022-12-29T01:28:22;17.55;;;8.98;;
49101;SDS011;34913;47.520;19.186;2022-12-29T01:30:48;19.00;;;9.70;;
49101;SDS011;34913;47.520;19.186;2022-12-29T01:33:14;16.50;;;9.77;;
49101;SDS011;34913;47.520;19.186;2022-12-29T01:35:39;17.52;;;10.02;;
49101;SDS011;34913;47.520;19.186;2022-12-29T01:38:05;15.27;;;9.05;;
49101;SDS011;34913;47.520;19.186;2022-12-29T01:40:30;17.75;;;9.70;;
49101;SDS011;34913;47.520;19.186;2022-12-29T01:42:56;20.90;;;9.48;;
49101;SDS011;34913;47.520;19.186;2022-12-29T01:45:22;16.02;;;9.23;;
49101;SDS011;34913;47.520;19.186;2022-12-29T01:47:49;16.58;;;9.38;;
49101;SDS011;34913;47.520;19.186;2022-12-29T01:50:22;15.98;;;9.52;;
49101;SDS011;34913;47.520;19.186;2022-12-29T01:52:56;21.02;;;10.20;;
49101;SDS011;34913;47.520;19.186;2022-12-29T01:55:31;17.23;;;9.38;;
49101;SDS011;34913;47.520;19.186;2022-12-29T01:58:02;17.30;;;10.40;;
49101;SDS011;34913;47.520;19.186;2022-12-29T02:00:30;18.83;;;9.75;;
49101;SDS011;34913;47.520;19.186;2022-12-29T02:02:56;16.23;;;9.45;;
49101;SDS011;34913;47.520;19.186;2022-12-29T02:08:05;21.00;;;10.32;;
49101;SDS011;34913;47.520;19.186;2022-12-29T02:10:31;20.63;;;10.13;;
49101;SDS011;34913;47.520;19.186;2022-12-29T02:13:00;16.67;;;10.15;;
49101;SDS011;34913;47.520;19.186;2022-12-29T02:15:30;15.48;;;9.25;;
49101;SDS011;34913;47.520;19.186;2022-12-29T02:21:41;19.02;;;9.75;;
49101;SDS011;34913;47.520;19.186;2022-12-29T02:45:13;17.60;;;9.70;;
49101;SDS011;34913;47.520;19.186;2022-12-29T02:47:51;19.05;;;9.50;;
49101;SDS011;34913;47.520;19.186;2022-12-29T02:50:35;18.63;;;9.48;;
49101;SDS011;34913;47.520;19.186;2022-12-29T02:53:07;17.13;;;9.73;;
49101;SDS011;34913;47.520;19.186;2022-12-29T02:55:36;16.58;;;9.30;;
49101;SDS011;34913;47.520;19.186;2022-12-29T02:58:18;15.85;;;9.40;;
49101;SDS011;34913;47.520;19.186;2022-12-29T03:06:33;17.05;;;9.73;;
49101;SDS011;34913;47.520;19.186;2022-12-29T03:12:03;20.05;;;10.25;;
49101;SDS011;34913;47.520;19.186;2022-12-29T03:17:54;15.25;;;9.10;;
49101;SDS011;34913;47.520;19.186;2022-12-29T03:20:31;13.95;;;9.35;;
49101;SDS011;34913;47.520;19.186;2022-12-29T03:23:03;16.42;;;9.77;;
49101;SDS011;34913;47.520;19.186;2022-12-29T03:25:32;17.08;;;9.30;;
49101;SDS011;34913;47.520;19.186;2022-12-29T03:28:01;19.60;;;9.30;;
49101;SDS011;34913;47.520;19.186;2022-12-29T03:30:31;15.70;;;9.75;;
49101;SDS011;34913;47.520;19.186;2022-12-29T03:32:59;19.10;;;10.23;;
49101;SDS011;34913;47.520;19.186;2022-12-29T03:35:29;18.02;;;10.35;;
49101;SDS011;34913;47.520;19.186;2022-12-29T03:37:59;21.67;;;10.77;;
49101;SDS011;34913;47.520;19.186;2022-12-29T03:40:31;21.45;;;10.85;;
49101;SDS011;34913;47.520;19.186;2022-12-29T03:42:59;19.98;;;11.50;;
49101;SDS011;34913;47.520;19.186;2022-12-29T03:45:26;21.67;;;12.05;;
49101;SDS011;34913;47.520;19.186;2022-12-29T03:47:52;22.13;;;11.77;;
49101;SDS011;34913;47.520;19.186;2022-12-29T03:50:18;23.77;;;12.18;;
49101;SDS011;34913;47.520;19.186;2022-12-29T03:52:43;22.02;;;12.13;;
49101;SDS011;34913;47.520;19.186;2022-12-29T03:55:09;23.13;;;11.80;;
49101;SDS011;34913;47.520;19.186;2022-12-29T03:57:34;22.55;;;12.75;;
49101;SDS011;34913;47.520;19.186;2022-12-29T04:00:00;24.20;;;13.35;;
49101;SDS011;34913;47.520;19.186;2022-12-29T04:02:26;23.70;;;13.40;;
49101;SDS011;34913;47.520;19.186;2022-12-29T04:04:51;24.58;;;12.95;;
49101;SDS011;34913;47.520;19.186;2022-12-29T04:07:17;24.85;;;12.77;;
49101;SDS011;34913;47.520;19.186;2022-12-29T04:09:42;22.58;;;12.77;;
49101;SDS011;34913;47.520;19.186;2022-12-29T04:12:07;23.70;;;12.20;;
49101;SDS011;34913;47.520;19.186;2022-12-29T04:14:33;23.40;;;12.75;;
49101;SDS011;34913;47.520;19.186;2022-12-29T04:16:58;22.98;;;11.93;;
49101;SDS011;34913;47.520;19.186;2022-12-29T04:19:24;21.13;;;12.07;;
49101;SDS011;34913;47.520;19.186;2022-12-29T04:21:49;21.73;;;12.70;;
49101;SDS011;34913;47.520;19.186;2022-12-29T04:24:14;20.55;;;11.55;;
49101;SDS011;34913;47.520;19.186;2022-12-29T04:26:40;25.20;;;13.10;;
49101;SDS011;34913;47.520;19.186;2022-12-29T04:29:06;22.63;;;12.65;;
49101;SDS011;34913;47.520;19.186;2022-12-29T04:31:31;22.02;;;12.10;;
49101;SDS011;34913;47.520;19.186;2022-12-29T04:33:57;24.00;;;13.43;;
49101;SDS011;34913;47.520;19.186;2022-12-29T04:36:22;21.08;;;12.75;;
49101;SDS011;34913;47.520;19.186;2022-12-29T04:38:48;25.40;;;12.85;;
49101;SDS011;34913;47.520;19.186;2022-12-29T04:41:14;26.50;;;13.02;;
49101;SDS011;34913;47.520;19.186;2022-12-29T04:43:39;23.77;;;12.95;;
49101;SDS011;34913;47.520;19.186;2022-12-29T04:46:05;25.42;;;14.00;;
49101;SDS011;34913;47.520;19.186;2022-12-29T04:48:30;29.17;;;14.32;;
49101;SDS011;34913;47.520;19.186;2022-12-29T04:50:56;25.77;;;14.48;;
49101;SDS011;34913;47.520;19.186;2022-12-29T04:53:21;25.95;;;13.77;;
49101;SDS011;34913;47.520;19.186;2022-12-29T04:55:50;24.65;;;14.05;;
49101;SDS011;34913;47.520;19.186;2022-12-29T04:58:17;25.15;;;14.35;;
49101;SDS011;34913;47.520;19.186;2022-12-29T05:00:43;28.73;;;14.05;;
49101;SDS011;34913;47.520;19.186;2022-12-29T05:03:08;27.83;;;14.88;;
49101;SDS011;34913;47.520;19.186;2022-12-29T05:05:34;26.17;;;14.07;;
49101;SDS011;34913;47.520;19.186;2022-12-29T05:07:59;28.35;;;15.40;;
49101;SDS011;34913;47.520;19.186;2022-12-29T05:10:24;27.55;;;14.50;;
49101;SDS011;34913;47.520;19.186;2022-12-29T05:12:50;26.45;;;13.98;;
49101;SDS011;34913;47.520;19.186;2022-12-29T05:15:16;27.10;;;15.02;;
49101;SDS011;34913;47.520;19.186;2022-12-29T05:17:41;28.80;;;15.10;;
49101;SDS011;34913;47.520;19.186;2022-12-29T05:20:07;27.33;;;14.75;;
49101;SDS011;34913;47.520;19.186;2022-12-29T05:22:33;28.70;;;14.93;;
49101;SDS011;34913;47.520;19.186;2022-12-29T05:24:59;28.33;;;14.85;;
49101;SDS011;34913;47.520;19.186;2022-12-29T05:27:24;29.13;;;15.32;;
49101;SDS011;34913;47.520;19.186;2022-12-29T05:29:49;25.65;;;14.68;;
49101;SDS011;34913;47.520;19.186;2022-12-29T05:32:15;32.25;;;16.00;;
49101;SDS011;34913;47.520;19.186;2022-12-29T05:34:40;27.83;;;14.73;;
49101;SDS011;34913;47.520;19.186;2022-12-29T05:37:06;29.67;;;15.27;;
49101;SDS011;34913;47.520;19.186;2022-12-29T05:39:31;32.13;;;15.80;;
49101;SDS011;34913;47.520;19.186;2022-12-29T05:41:56;27.00;;;14.95;;
49101;SDS011;34913;47.520;19.186;2022-12-29T05:44:22;30.42;;;15.50;;
49101;SDS011;34913;47.520;19.186;2022-12-29T05:46:48;26.80;;;15.27;;
49101;SDS011;34913;47.520;19.186;2022-12-29T05:49:13;31.05;;;15.10;;
49101;SDS011;34913;47.520;19.186;2022-12-29T05:51:39;30.05;;;15.20;;
49101;SDS011;34913;47.520;19.186;2022-12-29T05:54:04;26.60;;;14.68;;
49101;SDS011;34913;47.520;19.186;2022-12-29T05:56:30;29.42;;;14.57;;
49101;SDS011;34913;47.520;19.186;2022-12-29T05:58:55;26.17;;;14.05;;
49101;SDS011;34913;47.520;19.186;2022-12-29T06:01:20;25.88;;;13.93;;
49101;SDS011;34913;47.520;19.186;2022-12-29T06:03:46;27.23;;;14.85;;
49101;SDS011;34913;47.520;19.186;2022-12-29T06:06:11;27.58;;;14.77;;
49101;SDS011;34913;47.520;19.186;2022-12-29T06:08:37;28.17;;;15.27;;
49101;SDS011;34913;47.520;19.186;2022-12-29T06:11:02;28.23;;;15.10;;
49101;SDS011;34913;47.520;19.186;2022-12-29T06:13:27;33.78;;;15.52;;
49101;SDS011;34913;47.520;19.186;2022-12-29T06:15:53;27.05;;;14.93;;
49101;SDS011;34913;47.520;19.186;2022-12-29T06:18:19;28.42;;;15.32;;
49101;SDS011;34913;47.520;19.186;2022-12-29T06:20:44;31.58;;;16.63;;
49101;SDS011;34913;47.520;19.186;2022-12-29T06:23:10;37.75;;;18.70;;
49101;SDS011;34913;47.520;19.186;2022-12-29T06:25:37;33.42;;;17.92;;
49101;SDS011;34913;47.520;19.186;2022-12-29T06:28:02;30.55;;;16.98;;
49101;SDS011;34913;47.520;19.186;2022-12-29T06:30:28;34.08;;;18.17;;
49101;SDS011;34913;47.520;19.186;2022-12-29T06:32:54;30.98;;;17.05;;
49101;SDS011;34913;47.520;19.186;2022-12-29T06:35:19;34.88;;;18.35;;
49101;SDS011;34913;47.520;19.186;2022-12-29T06:37:47;36.72;;;19.63;;
49101;SDS011;34913;47.520;19.186;2022-12-29T06:40:12;37.97;;;19.95;;
49101;SDS011;34913;47.520;19.186;2022-12-29T06:42:38;38.15;;;20.13;;
49101;SDS011;34913;47.520;19.186;2022-12-29T06:45:03;35.95;;;19.50;;
49101;SDS011;34913;47.520;19.186;2022-12-29T06:47:29;38.88;;;19.95;;
49101;SDS011;34913;47.520;19.186;2022-12-29T06:49:55;39.80;;;20.38;;
49101;SDS011;34913;47.520;19.186;2022-12-29T06:52:20;39.03;;;20.20;;
49101;SDS011;34913;47.520;19.186;2022-12-29T06:54:45;42.28;;;21.02;;
49101;SDS011;34913;47.520;19.186;2022-12-29T06:57:11;38.25;;;20.25;;
49101;SDS011;34913;47.520;19.186;2022-12-29T06:59:36;37.42;;;20.15;;
49101;SDS011;34913;47.520;19.186;2022-12-29T07:02:02;34.30;;;18.77;;
49101;SDS011;34913;47.520;19.186;2022-12-29T07:04:27;34.42;;;18.30;;
49101;SDS011;34913;47.520;19.186;2022-12-29T07:06:53;33.80;;;18.45;;
49101;SDS011;34913;47.520;19.186;2022-12-29T07:09:20;35.83;;;17.55;;
49101;SDS011;34913;47.520;19.186;2022-12-29T07:11:45;33.58;;;17.70;;
49101;SDS011;34913;47.520;19.186;2022-12-29T07:14:11;30.95;;;17.20;;
49101;SDS011;34913;47.520;19.186;2022-12-29T07:16:37;32.78;;;16.88;;
49101;SDS011;34913;47.520;19.186;2022-12-29T07:19:02;38.10;;;16.98;;
49101;SDS011;34913;47.520;19.186;2022-12-29T07:21:28;42.78;;;22.25;;
49101;SDS011;34913;47.520;19.186;2022-12-29T07:23:54;41.25;;;21.38;;
49101;SDS011;34913;47.520;19.186;2022-12-29T07:26:20;39.63;;;20.70;;
49101;SDS011;34913;47.520;19.186;2022-12-29T07:28:45;41.00;;;20.80;;
49101;SDS011;34913;47.520;19.186;2022-12-29T07:31:14;37.78;;;19.88;;
49101;SDS011;34913;47.520;19.186;2022-12-29T07:33:42;36.97;;;19.90;;
49101;SDS011;34913;47.520;19.186;2022-12-29T07:36:09;36.70;;;19.48;;
49101;SDS011;34913;47.520;19.186;2022-12-29T07:38:35;35.70;;;18.95;;
49101;SDS011;34913;47.520;19.186;2022-12-29T07:41:00;36.55;;;19.38;;
49101;SDS011;34913;47.520;19.186;2022-12-29T07:43:25;37.63;;;19.52;;
49101;SDS011;34913;47.520;19.186;2022-12-29T07:45:51;33.03;;;18.73;;
49101;SDS011;34913;47.520;19.186;2022-12-29T07:48:16;37.58;;;19.75;;
49101;SDS011;34913;47.520;19.186;2022-12-29T07:50:42;37.97;;;19.35;;
49101;SDS011;34913;47.520;19.186;2022-12-29T07:53:07;39.60;;;19.88;;
49101;SDS011;34913;47.520;19.186;2022-12-29T07:55:33;41.90;;;21.73;;
49101;SDS011;34913;47.520;19.186;2022-12-29T07:57:58;44.22;;;23.77;;
49101;SDS011;34913;47.520;19.186;2022-12-29T08:00:23;43.03;;;22.65;;
49101;SDS011;34913;47.520;19.186;2022-12-29T08:02:49;44.15;;;22.17;;
49101;SDS011;34913;47.520;19.186;2022-12-29T08:05:15;37.33;;;20.45;;
49101;SDS011;34913;47.520;19.186;2022-12-29T08:07:44;36.58;;;20.70;;
49101;SDS011;34913;47.520;19.186;2022-12-29T08:10:10;43.33;;;21.85;;
49101;SDS011;34913;47.520;19.186;2022-12-29T08:12:37;39.05;;;21.35;;
49101;SDS011;34913;47.520;19.186;2022-12-29T08:15:04;45.72;;;22.63;;
49101;SDS011;34913;47.520;19.186;2022-12-29T08:17:30;40.15;;;22.42;;
49101;SDS011;34913;47.520;19.186;2022-12-29T08:19:56;42.72;;;21.08;;
49101;SDS011;34913;47.520;19.186;2022-12-29T08:22:22;37.50;;;20.08;;
49101;SDS011;34913;47.520;19.186;2022-12-29T08:24:47;38.25;;;21.13;;
49101;SDS011;34913;47.520;19.186;2022-12-29T08:27:13;41.30;;;20.27;;
49101;SDS011;34913;47.520;19.186;2022-12-29T08:29:38;39.78;;;20.38;;
49101;SDS011;34913;47.520;19.186;2022-12-29T08:32:03;39.78;;;20.23;;
49101;SDS011;34913;47.520;19.186;2022-12-29T08:34:30;38.30;;;20.00;;
49101;SDS011;34913;47.520;19.186;2022-12-29T08:36:56;39.38;;;20.80;;
49101;SDS011;34913;47.520;19.186;2022-12-29T08:39:21;37.92;;;20.25;;
49101;SDS011;34913;47.520;19.186;2022-12-29T08:41:47;39.05;;;20.38;;
49101;SDS011;34913;47.520;19.186;2022-12-29T08:44:12;39.38;;;21.42;;
49101;SDS011;34913;47.520;19.186;2022-12-29T08:46:37;41.13;;;21.65;;
49101;SDS011;34913;47.520;19.186;2022-12-29T08:49:03;41.70;;;22.38;;
49101;SDS011;34913;47.520;19.186;2022-12-29T08:51:28;40.30;;;22.40;;
49101;SDS011;34913;47.520;19.186;2022-12-29T08:53:54;36.92;;;20.83;;
49101;SDS011;34913;47.520;19.186;2022-12-29T08:56:19;37.85;;;20.92;;
49101;SDS011;34913;47.520;19.186;2022-12-29T08:58:45;41.88;;;21.70;;
49101;SDS011;34913;47.520;19.186;2022-12-29T09:01:10;36.83;;;20.67;;
49101;SDS011;34913;47.520;19.186;2022-12-29T09:03:35;35.95;;;19.85;;
49101;SDS011;34913;47.520;19.186;2022-12-29T09:06:01;38.67;;;21.10;;
49101;SDS011;34913;47.520;19.186;2022-12-29T09:08:27;41.08;;;21.33;;
49101;SDS011;34913;47.520;19.186;2022-12-29T09:10:52;39.58;;;21.42;;
49101;SDS011;34913;47.520;19.186;2022-12-29T09:13:18;39.25;;;21.30;;
49101;SDS011;34913;47.520;19.186;2022-12-29T09:15:44;37.92;;;20.95;;
49101;SDS011;34913;47.520;19.186;2022-12-29T09:18:10;43.30;;;22.85;;
49101;SDS011;34913;47.520;19.186;2022-12-29T09:20:36;47.85;;;24.50;;
49101;SDS011;34913;47.520;19.186;2022-12-29T09:23:02;51.13;;;25.35;;
49101;SDS011;34913;47.520;19.186;2022-12-29T09:25:27;42.75;;;23.58;;
49101;SDS011;34913;47.520;19.186;2022-12-29T09:27:53;42.00;;;22.95;;
49101;SDS011;34913;47.520;19.186;2022-12-29T09:30:19;41.92;;;22.52;;
49101;SDS011;34913;47.520;19.186;2022-12-29T09:32:45;41.15;;;22.15;;
49101;SDS011;34913;47.520;19.186;2022-12-29T09:35:12;41.63;;;22.08;;
49101;SDS011;34913;47.520;19.186;2022-12-29T09:37:38;40.65;;;22.13;;
49101;SDS011;34913;47.520;19.186;2022-12-29T09:40:04;42.30;;;23.20;;
49101;SDS011;34913;47.520;19.186;2022-12-29T09:45:36;55.45;;;27.13;;
49101;SDS011;34913;47.520;19.186;2022-12-29T09:48:11;42.17;;;23.30;;
49101;SDS011;34913;47.520;19.186;2022-12-29T09:50:44;61.58;;;33.92;;
49101;SDS011;34913;47.520;19.186;2022-12-29T09:53:49;40.13;;;23.20;;
49101;SDS011;34913;47.520;19.186;2022-12-29T09:56:12;38.95;;;21.10;;
49101;SDS011;34913;47.520;19.186;2022-12-29T09:58:43;34.80;;;20.90;;
49101;SDS011;34913;47.520;19.186;2022-12-29T10:03:57;37.30;;;20.77;;
49101;SDS011;34913;47.520;19.186;2022-12-29T10:06:32;37.25;;;21.02;;
49101;SDS011;34913;47.520;19.186;2022-12-29T10:12:31;39.75;;;20.80;;
49101;SDS011;34913;47.520;19.186;2022-12-29T10:18:32;38.25;;;21.52;;
49101;SDS011;34913;47.520;19.186;2022-12-29T10:24:03;54.30;;;27.42;;
49101;SDS011;34913;47.520;19.186;2022-12-29T10:26:33;87.10;;;47.53;;
49101;SDS011;34913;47.520;19.186;2022-12-29T10:29:05;44.88;;;24.25;;
49101;SDS011;34913;47.520;19.186;2022-12-29T10:31:39;42.33;;;23.20;;
49101;SDS011;34913;47.520;19.186;2022-12-29T10:36:45;45.78;;;22.85;;
49101;SDS011;34913;47.520;19.186;2022-12-29T10:41:46;49.58;;;25.73;;
49101;SDS011;34913;47.520;19.186;2022-12-29T10:44:16;49.83;;;24.85;;
49101;SDS011;34913;47.520;19.186;2022-12-29T10:46:44;45.65;;;25.05;;
49101;SDS011;34913;47.520;19.186;2022-12-29T10:49:18;47.30;;;24.17;;
49101;SDS011;34913;47.520;19.186;2022-12-29T10:51:46;44.88;;;24.25;;
49101;SDS011;34913;47.520;19.186;2022-12-29T10:56:54;44.35;;;25.05;;
49101;SDS011;34913;47.520;19.186;2022-12-29T10:59:26;44.83;;;25.77;;
49101;SDS011;34913;47.520;19.186;2022-12-29T11:02:13;47.00;;;25.83;;
49101;SDS011;34913;47.520;19.186;2022-12-29T11:05:10;45.00;;;25.73;;
49101;SDS011;34913;47.520;19.186;2022-12-29T11:07:59;43.30;;;24.48;;
49101;SDS011;34913;47.520;19.186;2022-12-29T11:10:38;43.25;;;23.98;;
49101;SDS011;34913;47.520;19.186;2022-12-29T11:18:43;39.25;;;23.45;;
49101;SDS011;34913;47.520;19.186;2022-12-29T11:21:04;41.50;;;23.98;;
49101;SDS011;34913;47.520;19.186;2022-12-29T11:23:33;41.53;;;23.85;;
49101;SDS011;34913;47.520;19.186;2022-12-29T11:28:35;40.58;;;22.90;;
49101;SDS011;34913;47.520;19.186;2022-12-29T11:31:03;42.60;;;23.65;;
49101;SDS011;34913;47.520;19.186;2022-12-29T11:33:30;43.83;;;23.80;;
49101;SDS011;34913;47.520;19.186;2022-12-29T11:35:57;40.35;;;22.73;;
49101;SDS011;34913;47.520;19.186;2022-12-29T11:38:28;39.42;;;21.70;;
49101;SDS011;34913;47.520;19.186;2022-12-29T11:41:02;37.88;;;22.42;;
49101;SDS011;34913;47.520;19.186;2022-12-29T11:43:31;37.03;;;21.65;;
49101;SDS011;34913;47.520;19.186;2022-12-29T11:45:58;38.22;;;21.58;;
49101;SDS011;34913;47.520;19.186;2022-12-29T11:48:24;31.98;;;18.85;;
49101;SDS011;34913;47.520;19.186;2022-12-29T11:50:55;29.40;;;19.10;;
49101;SDS011;34913;47.520;19.186;2022-12-29T11:56:13;31.23;;;17.85;;
49101;SDS011;34913;47.520;19.186;2022-12-29T11:58:40;27.50;;;17.73;;
49101;SDS011;34913;47.520;19.186;2022-12-29T12:06:28;34.58;;;18.20;;
49101;SDS011;34913;47.520;19.186;2022-12-29T12:09:02;32.40;;;18.25;;
49101;SDS011;34913;47.520;19.186;2022-12-29T12:11:32;32.83;;;18.33;;
49101;SDS011;34913;47.520;19.186;2022-12-29T12:14:14;34.58;;;18.70;;
49101;SDS011;34913;47.520;19.186;2022-12-29T12:16:50;30.58;;;17.88;;
49101;SDS011;34913;47.520;19.186;2022-12-29T12:19:32;30.15;;;19.33;;
49101;SDS011;34913;47.520;19.186;2022-12-29T12:22:27;30.52;;;18.45;;
49101;SDS011;34913;47.520;19.186;2022-12-29T12:27:53;35.47;;;19.48;;
49101;SDS011;34913;47.520;19.186;2022-12-29T12:30:26;31.92;;;19.75;;
49101;SDS011;34913;47.520;19.186;2022-12-29T12:41:06;36.30;;;19.77;;
49101;SDS011;34913;47.520;19.186;2022-12-29T12:43:39;36.80;;;19.63;;
49101;SDS011;34913;47.520;19.186;2022-12-29T13:02:08;31.85;;;18.60;;
49101;SDS011;34913;47.520;19.186;2022-12-29T13:18:44;37.10;;;21.23;;
49101;SDS011;34913;47.520;19.186;2022-12-29T13:21:26;33.13;;;19.48;;
49101;SDS011;34913;47.520;19.186;2022-12-29T13:24:13;38.70;;;19.73;;
49101;SDS011;34913;47.520;19.186;2022-12-29T13:26:48;33.33;;;19.35;;
49101;SDS011;34913;47.520;19.186;2022-12-29T13:29:20;31.95;;;20.20;;
49101;SDS011;34913;47.520;19.186;2022-12-29T13:31:55;34.28;;;19.25;;
49101;SDS011;34913;47.520;19.186;2022-12-29T13:37:17;31.42;;;19.10;;
49101;SDS011;34913;47.520;19.186;2022-12-29T13:42:16;35.00;;;19.58;;
49101;SDS011;34913;47.520;19.186;2022-12-29T13:44:45;30.83;;;18.60;;
49101;SDS011;34913;47.520;19.186;2022-12-29T13:49:48;29.80;;;17.80;;
49101;SDS011;34913;47.520;19.186;2022-12-29T13:52:21;35.15;;;19.90;;
49101;SDS011;34913;47.520;19.186;2022-12-29T14:00:15;32.92;;;18.75;;
49101;SDS011;34913;47.520;19.186;2022-12-29T14:07:42;31.85;;;19.33;;
49101;SDS011;34913;47.520;19.186;2022-12-29T14:10:25;30.10;;;18.10;;
49101;SDS011;34913;47.520;19.186;2022-12-29T14:15:44;32.13;;;18.83;;
49101;SDS011;34913;47.520;19.186;2022-12-29T14:18:21;31.65;;;18.75;;
49101;SDS011;34913;47.520;19.186;2022-12-29T14:23:44;36.33;;;18.58;;
49101;SDS011;34913;47.520;19.186;2022-12-29T14:26:12;33.03;;;18.73;;
49101;SDS011;34913;47.520;19.186;2022-12-29T14:28:39;31.45;;;18.40;;
49101;SDS011;34913;47.520;19.186;2022-12-29T14:33:41;31.45;;;19.10;;
49101;SDS011;34913;47.520;19.186;2022-12-29T14:36:33;35.00;;;21.20;;
49101;SDS011;34913;47.520;19.186;2022-12-29T14:39:04;38.72;;;22.48;;
49101;SDS011;34913;47.520;19.186;2022-12-29T14:44:48;40.47;;;23.20;;
49101;SDS011;34913;47.520;19.186;2022-12-29T14:49:55;43.08;;;24.73;;
49101;SDS011;34913;47.520;19.186;2022-12-29T14:52:25;40.70;;;23.90;;
49101;SDS011;34913;47.520;19.186;2022-12-29T14:55:28;39.35;;;22.75;;
49101;SDS011;34913;47.520;19.186;2022-12-29T14:57:57;40.83;;;22.40;;
49101;SDS011;34913;47.520;19.186;2022-12-29T15:00:33;42.33;;;24.02;;
49101;SDS011;34913;47.520;19.186;2022-12-29T15:03:06;42.53;;;24.00;;
49101;SDS011;34913;47.520;19.186;2022-12-29T15:08:07;46.50;;;25.23;;
49101;SDS011;34913;47.520;19.186;2022-12-29T15:10:40;42.47;;;24.80;;
49101;SDS011;34913;47.520;19.186;2022-12-29T15:13:24;45.50;;;25.35;;
49101;SDS011;34913;47.520;19.186;2022-12-29T15:15:57;46.72;;;25.17;;
49101;SDS011;34913;47.520;19.186;2022-12-29T15:18:26;46.05;;;24.95;;
49101;SDS011;34913;47.520;19.186;2022-12-29T15:20:55;50.67;;;25.98;;
49101;SDS011;34913;47.520;19.186;2022-12-29T15:23:23;52.20;;;26.88;;
49101;SDS011;34913;47.520;19.186;2022-12-29T15:25:53;48.10;;;26.23;;
49101;SDS011;34913;47.520;19.186;2022-12-29T15:28:20;49.72;;;25.38;;
49101;SDS011;34913;47.520;19.186;2022-12-29T15:30:53;49.97;;;25.60;;
49101;SDS011;34913;47.520;19.186;2022-12-29T15:33:28;51.45;;;26.52;;
49101;SDS011;34913;47.520;19.186;2022-12-29T15:35:54;52.10;;;26.95;;
49101;SDS011;34913;47.520;19.186;2022-12-29T15:38:25;50.75;;;27.67;;
49101;SDS011;34913;47.520;19.186;2022-12-29T15:43:39;55.85;;;27.92;;
49101;SDS011;34913;47.520;19.186;2022-12-29T15:46:06;55.08;;;28.75;;
49101;SDS011;34913;47.520;19.186;2022-12-29T15:48:32;54.42;;;30.73;;
49101;SDS011;34913;47.520;19.186;2022-12-29T15:50:58;55.95;;;29.98;;
49101;SDS011;34913;47.520;19.186;2022-12-29T15:53:28;53.35;;;28.13;;
49101;SDS011;34913;47.520;19.186;2022-12-29T15:55:58;60.80;;;31.00;;
49101;SDS011;34913;47.520;19.186;2022-12-29T15:58:26;58.28;;;29.13;;
49101;SDS011;34913;47.520;19.186;2022-12-29T16:00:55;59.00;;;29.00;;
49101;SDS011;34913;47.520;19.186;2022-12-29T16:03:24;55.08;;;29.40;;
49101;SDS011;34913;47.520;19.186;2022-12-29T16:05:55;59.17;;;28.65;;
49101;SDS011;34913;47.520;19.186;2022-12-29T16:10:58;53.45;;;27.80;;
49101;SDS011;34913;47.520;19.186;2022-12-29T16:13:29;49.10;;;26.92;;
49101;SDS011;34913;47.520;19.186;2022-12-29T16:16:07;53.73;;;27.97;;
49101;SDS011;34913;47.520;19.186;2022-12-29T16:18:43;53.15;;;26.58;;
49101;SDS011;34913;47.520;19.186;2022-12-29T16:24:20;49.90;;;25.80;;
49101;SDS011;34913;47.520;19.186;2022-12-29T16:27:02;48.00;;;25.98;;
49101;SDS011;34913;47.520;19.186;2022-12-29T16:31:59;48.03;;;24.90;;
49101;SDS011;34913;47.520;19.186;2022-12-29T16:36:56;47.00;;;25.30;;
49101;SDS011;34913;47.520;19.186;2022-12-29T16:39:37;44.67;;;24.42;;
49101;SDS011;34913;47.520;19.186;2022-12-29T16:45:09;46.97;;;25.45;;
49101;SDS011;34913;47.520;19.186;2022-12-29T16:48:06;45.40;;;24.55;;
49101;SDS011;34913;47.520;19.186;2022-12-29T16:50:52;42.70;;;23.63;;
49101;SDS011;34913;47.520;19.186;2022-12-29T16:53:29;46.05;;;25.60;;
49101;SDS011;34913;47.520;19.186;2022-12-29T16:56:01;48.78;;;24.75;;
49101;SDS011;34913;47.520;19.186;2022-12-29T16:58:30;49.17;;;24.85;;
49101;SDS011;34913;47.520;19.186;2022-12-29T17:00:59;48.97;;;25.25;;
49101;SDS011;34913;47.520;19.186;2022-12-29T17:03:31;47.78;;;25.75;;
49101;SDS011;34913;47.520;19.186;2022-12-29T17:05:59;51.58;;;27.02;;
49101;SDS011;34913;47.520;19.186;2022-12-29T17:08:25;52.58;;;28.30;;
49101;SDS011;34913;47.520;19.186;2022-12-29T17:10:51;56.35;;;27.95;;
49101;SDS011;34913;47.520;19.186;2022-12-29T17:13:41;57.22;;;31.33;;
49101;SDS011;34913;47.520;19.186;2022-12-29T17:16:07;71.07;;;38.50;;